Time;durP1;ratioP1;P1;durP2;ratioP2;P2;SDS_P1;SDS_P2;PMS_P1;PMS_P2;Temp;Humidity;BMP_temperature;BMP_pressure;BME280_temperature;BME280_humidity;BME280_pressure;Samples;Min_cycle;Max_cycle;Signal;HPM_P1;HPM_P2
2021/12/21 00:01:56;;;;;;;2.88;0.80;;;;;;;18.15;38.54;102412.72;4181419;28;20071;-45
2021/12/21 00:03:58;;;;;;;2.40;0.98;;;;;;;18.00;38.48;102379.81;4174195;28;20041;-43
2021/12/21 00:06:00;;;;;;;2.95;0.85;;;;;;;18.22;38.30;102417.13;4179161;28;20056;-44
2021/12/21 00:08:03;;;;;;;2.67;1.33;;;;;;;18.23;38.41;102412.41;4179470;28;20071;-44
2021/12/21 00:10:05;;;;;;;1.90;0.95;;;;;;;18.26;38.28;102409.22;4180765;28;20037;-43
2021/12/21 00:12:08;;;;;;;2.22;1.15;;;;;;;18.27;38.59;102422.81;4169005;28;20425;-43
2021/12/21 00:16:44;;;;;;;2.60;1.00;;;;;;;18.29;38.79;102420.69;4179879;28;20037;-44
2021/12/21 00:19:05;;;;;;;2.60;1.05;;;;;;;18.35;38.29;102429.16;4169960;28;20045;-45
2021/12/21 00:21:30;;;;;;;4.07;1.10;;;;;;;18.27;38.44;102422.81;4181635;28;20537;-42
2021/12/21 00:23:42;;;;;;;3.25;0.93;;;;;;;18.33;38.27;102418.31;4182196;28;20099;-44
2021/12/21 00:25:44;;;;;;;3.17;1.10;;;;;;;18.34;38.14;102416.41;4181762;28;20041;-47
2021/12/21 00:27:47;;;;;;;3.03;0.80;;;;;;;18.38;38.43;102434.28;4180459;28;20500;-43
2021/12/21 00:29:51;;;;;;;2.30;0.90;;;;;;;18.38;38.53;102423.19;4168515;28;20091;-44
2021/12/21 00:31:53;;;;;;;3.88;1.08;;;;;;;18.44;38.40;102433.34;4170292;28;20045;-45
2021/12/21 00:33:59;;;;;;;3.08;1.08;;;;;;;18.45;38.48;102446.13;4174835;28;20037;-43
2021/12/21 00:36:03;;;;;;;2.70;1.20;;;;;;;18.45;38.29;102435.88;4169722;28;20053;-44
2021/12/21 00:38:05;;;;;;;3.83;1.02;;;;;;;18.45;38.01;102433.09;4172522;28;20033;-46
2021/12/21 00:40:08;;;;;;;4.57;1.02;;;;;;;18.46;38.35;102431.19;4167222;28;20479;-47
2021/12/21 00:42:10;;;;;;;2.38;1.00;;;;;;;18.44;38.17;102433.34;4181259;28;20492;-45
2021/12/21 00:44:11;;;;;;;2.75;1.30;;;;;;;18.48;37.92;102440.97;4170511;28;20025;-47
2021/12/21 00:46:14;;;;;;;2.47;1.20;;;;;;;18.47;38.14;102430.97;4179433;28;20040;-43
2021/12/21 00:48:16;;;;;;;5.38;1.15;;;;;;;18.40;38.04;102412.69;4170442;28;20119;-45
2021/12/21 00:50:21;;;;;;;4.07;1.65;;;;;;;18.45;38.12;102429.50;4163347;28;20088;-45
2021/12/21 00:52:25;;;;;;;1.10;0.75;;;;;;;18.47;37.97;102422.66;4167722;28;20485;-44
2021/12/21 00:54:27;;;;;;;8.07;1.43;;;;;;;18.51;38.20;102423.91;4166400;28;20702;-46
2021/12/21 00:56:32;;;;;;;1.83;1.00;;;;;;;18.52;38.12;102419.19;4174572;28;20048;-45
2021/12/21 00:58:33;;;;;;;3.35;1.80;;;;;;;18.53;37.93;102426.44;4168785;28;20045;-45
2021/12/21 01:00:38;;;;;;;6.47;1.00;;;;;;;18.48;38.13;102417.97;4165934;28;20038;-44
2021/12/21 01:02:41;;;;;;;1.95;0.98;;;;;;;18.54;38.00;102425.34;4164488;28;20103;-46
2021/12/21 01:04:47;;;;;;;1.92;1.02;;;;;;;18.59;37.95;102436.59;4165620;28;20033;-46
2021/12/21 01:07:03;;;;;;;3.75;1.38;;;;;;;18.61;37.97;102434.47;4165320;28;20424;-45
2021/12/21 01:09:37;;;;;;;;;;;;;;;18.62;38.11;102438.06;4165457;28;20441;-44
2021/12/21 01:11:43;;;;;;;1.70;1.00;;;;;;;18.69;38.08;102436.09;4165599;28;19920;-47
2021/12/21 01:18:20;;;;;;;3.22;0.82;;;;;;;18.67;37.89;102430.75;4166060;28;20045;-46
2021/12/21 01:27:12;;;;;;;1.67;0.90;;;;;;;18.66;37.95;102420.75;4164903;28;20088;-47
2021/12/21 01:29:34;;;;;;;2.35;0.93;;;;;;;18.67;38.23;102416.88;4164026;28;20045;-47
2021/12/21 01:31:56;;;;;;;1.45;1.05;;;;;;;18.63;38.34;102404.56;4164453;28;20115;-50
2021/12/21 01:34:12;;;;;;;1.20;0.88;;;;;;;18.69;38.03;102419.47;4164998;28;20075;-50
2021/12/21 01:36:23;;;;;;;3.10;0.90;;;;;;;18.69;38.09;102419.47;4164097;28;20488;-46
2021/12/21 01:38:33;;;;;;;1.80;0.70;;;;;;;18.67;38.17;102411.34;4163369;28;20042;-46
2021/12/21 01:43:08;;;;;;;3.25;1.00;;;;;;;18.67;38.31;102408.56;4164620;28;20034;-45
2021/12/21 01:49:55;;;;;;;2.70;1.10;;;;;;;18.71;38.23;102398.75;4165624;28;20083;-47
2021/12/21 01:51:56;;;;;;;1.33;0.80;;;;;;;18.70;38.22;102405.38;4164598;28;20045;-46
2021/12/21 01:54:00;;;;;;;1.58;1.00;;;;;;;18.66;38.20;102393.03;4163817;28;20096;-47
2021/12/21 01:56:02;;;;;;;2.63;1.23;;;;;;;18.71;38.54;102406.22;4163892;28;20080;-46
2021/12/21 01:58:07;;;;;;;4.10;1.00;;;;;;;18.68;38.39;102396.41;4163743;28;20025;-45
2021/12/21 02:00:10;;;;;;;1.55;1.00;;;;;;;18.69;38.30;102398.16;4162094;28;20041;-47
2021/12/21 02:02:14;;;;;;;6.28;1.27;;;;;;;18.72;38.60;102403.22;4164480;28;20045;-45
2021/12/21 02:04:17;;;;;;;1.92;1.00;;;;;;;18.73;38.25;102410.44;4164540;28;20151;-45
2021/12/21 02:06:25;;;;;;;3.00;0.95;;;;;;;18.73;38.72;102404.91;4162535;28;20107;-48
2021/12/21 02:08:29;;;;;;;1.88;1.00;;;;;;;18.74;38.29;102398.31;4163565;28;20045;-45
2021/12/21 02:10:31;;;;;;;3.97;0.90;;;;;;;18.76;38.25;102407.22;4162790;28;20037;-47
2021/12/21 02:12:33;;;;;;;1.65;0.80;;;;;;;18.75;38.55;102402.75;4159600;28;20543;-45
2021/12/21 02:14:36;;;;;;;1.35;0.65;;;;;;;18.76;38.27;102393.34;4163396;28;20440;-49
2021/12/21 02:17:02;;;;;;;1.58;0.88;;;;;;;18.76;38.51;102390.59;4164436;28;20033;-46
2021/12/21 02:19:18;;;;;;;2.58;1.30;;;;;;;18.76;38.17;102382.25;4163852;28;20473;-49
2021/12/21 02:21:28;;;;;;;2.40;1.10;;;;;;;18.78;38.37;102394.00;4164493;28;20094;-46
2021/12/21 02:23:34;;;;;;;1.25;0.95;;;;;;;18.79;38.18;102387.34;4164505;28;20424;-49
2021/12/21 02:27:53;;;;;;;2.80;1.00;;;;;;;18.77;38.64;102383.94;4165163;28;20021;-46
2021/12/21 02:29:54;;;;;;;0.98;0.75;;;;;;;18.79;38.20;102387.34;4164060;28;20042;-48
2021/12/21 02:31:56;;;;;;;2.22;0.70;;;;;;;18.81;38.64;102386.28;4174425;28;20393;-46
2021/12/21 02:34:01;;;;;;;2.65;1.00;;;;;;;18.78;38.26;102385.66;4179967;28;20098;-45
2021/12/21 02:36:03;;;;;;;1.98;0.98;;;;;;;18.77;38.28;102372.84;4179968;28;20041;-44
2021/12/21 02:38:05;;;;;;;1.60;0.80;;;;;;;18.76;38.57;102376.72;4180584;28;20029;-48
2021/12/21 02:40:08;;;;;;;1.70;0.82;;;;;;;18.78;38.54;102373.69;4180852;28;20029;-44
2021/12/21 02:42:15;;;;;;;2.08;1.00;;;;;;;18.75;38.63;102368.63;4180328;28;20049;-45
2021/12/21 02:44:23;;;;;;;1.98;0.90;;;;;;;18.77;38.40;102367.31;4179709;28;20029;-46
2021/12/21 02:46:25;;;;;;;1.83;1.00;;;;;;;18.77;38.46;102353.44;4180220;28;20037;-47
2021/12/21 02:48:26;;;;;;;1.73;1.00;;;;;;;18.76;38.34;102348.97;4178578;28;20087;-47
2021/12/21 02:50:28;;;;;;;1.27;1.00;;;;;;;18.79;38.57;102356.00;4179842;28;20090;-49
2021/12/21 02:52:30;;;;;;;2.25;0.70;;;;;;;18.77;38.37;102345.13;4179852;28;20041;-45
2021/12/21 02:54:31;;;;;;;2.42;0.90;;;;;;;18.78;38.46;102352.38;4180046;28;20041;-48
2021/12/21 02:56:33;;;;;;;1.30;0.82;;;;;;;18.78;38.73;102346.84;4180369;28;20041;-49
2021/12/21 02:58:34;;;;;;;2.28;0.90;;;;;;;18.76;38.53;102346.22;4179913;28;20056;-45
2021/12/21 03:00:36;;;;;;;1.15;0.80;;;;;;;18.71;38.72;102334.97;4180404;28;20469;-45
2021/12/21 03:02:38;;;;;;;1.70;0.90;;;;;;;18.76;38.38;102340.66;4178663;28;20500;-46
2021/12/21 03:04:43;;;;;;;1.55;0.93;;;;;;;18.76;38.41;102343.44;4180486;28;20024;-46
2021/12/21 03:07:22;;;;;;;1.20;0.85;;;;;;;18.73;38.52;102343.88;4180896;28;20090;-46
2021/12/21 03:11:48;;;;;;;2.17;0.90;;;;;;;18.78;38.69;102341.28;4164107;28;20116;-45
2021/12/21 03:14:08;;;;;;;1.30;0.80;;;;;;;18.77;38.68;102334.03;4166645;28;20042;-47
2021/12/21 03:16:10;;;;;;;1.77;0.80;;;;;;;18.74;38.44;102337.28;4165138;28;20041;-47
2021/12/21 03:18:11;;;;;;;3.50;1.10;;;;;;;18.77;38.64;102339.56;4166870;28;20405;-45
2021/12/21 03:20:13;;;;;;;1.98;1.13;;;;;;;18.77;38.46;102339.56;4182326;28;20086;-48
2021/12/21 03:22:15;;;;;;;1.60;1.20;;;;;;;18.76;38.61;102337.06;4166212;28;20037;-47
2021/12/21 03:24:17;;;;;;;1.77;0.80;;;;;;;18.75;38.77;102341.75;4165689;28;20539;-48
2021/12/21 03:26:18;;;;;;;1.85;1.00;;;;;;;18.74;38.85;102345.63;4166064;28;20046;-45
2021/12/21 03:28:19;;;;;;;1.50;0.85;;;;;;;18.74;38.40;102345.63;4166711;28;20483;-46
2021/12/21 03:30:25;;;;;;;2.42;1.42;;;;;;;18.71;38.77;102346.06;4166847;28;20075;-45
2021/12/21 03:32:27;;;;;;;1.63;0.77;;;;;;;18.72;38.39;102352.44;4166699;28;20111;-44
2021/12/21 03:34:29;;;;;;;2.08;0.90;;;;;;;18.68;38.72;102340.94;4165267;28;20127;-48
2021/12/21 03:36:30;;;;;;;2.42;1.00;;;;;;;18.73;38.67;102345.81;4166589;28;20099;-46
2021/12/21 03:38:33;;;;;;;1.42;1.08;;;;;;;18.70;38.68;102338.84;4166358;28;20155;-48
2021/12/21 03:40:34;;;;;;;2.70;1.20;;;;;;;18.67;38.62;102335.63;4165860;28;20037;-46
2021/12/21 03:42:35;;;;;;;1.98;1.00;;;;;;;18.67;38.63;102317.06;4166230;28;20037;-45
2021/12/21 03:44:37;;;;;;;1.20;0.88;;;;;;;18.66;38.91;102326.47;4166223;28;20049;-45
2021/12/21 03:46:51;;;;;;;2.28;1.08;;;;;;;18.65;38.57;102319.25;4166627;28;20412;-50
2021/12/21 03:48:53;;;;;;;3.05;1.00;;;;;;;18.58;38.31;102307.38;4166105;28;20029;-47
2021/12/21 03:50:54;;;;;;;1.70;1.15;;;;;;;18.65;38.71;102312.84;4166216;28;20079;-46
2021/12/21 03:52:55;;;;;;;1.70;0.90;;;;;;;18.62;38.69;102316.94;4166396;28;20037;-46
2021/12/21 03:55:01;;;;;;;1.90;1.13;;;;;;;18.61;38.68;102315.25;4166552;28;20075;-48
2021/12/21 03:57:03;;;;;;;2.28;1.00;;;;;;;18.61;38.76;102312.47;4165605;28;20042;-50
2021/12/21 03:59:06;;;;;;;1.75;0.90;;;;;;;18.60;38.75;102310.78;4166065;28;20030;-47
2021/12/21 04:01:08;;;;;;;1.48;1.13;;;;;;;18.55;38.77;102296.75;4164756;28;20053;-50
2021/12/21 04:03:09;;;;;;;1.85;1.33;;;;;;;18.60;38.55;102305.22;4174023;28;20082;-51
2021/12/21 04:05:10;;;;;;;2.35;1.25;;;;;;;18.58;38.39;102296.28;4177945;28;20093;-47
2021/12/21 04:07:12;;;;;;;2.13;1.30;;;;;;;18.54;38.43;102295.06;4166136;28;20045;-44
2021/12/21 04:09:14;;;;;;;1.65;0.77;;;;;;;18.57;38.78;102308.47;4171912;28;20436;-47
2021/12/21 04:11:16;;;;;;;2.47;0.98;;;;;;;18.55;38.81;102307.81;4180331;28;20082;-45
2021/12/21 04:13:17;;;;;;;1.77;1.20;;;;;;;18.56;38.48;102309.53;4181530;28;20083;-46
2021/12/21 04:15:23;;;;;;;0.90;0.75;;;;;;;18.56;38.51;102304.00;4166353;28;20030;-45
2021/12/21 04:17:25;;;;;;;2.17;1.30;;;;;;;18.57;38.54;102289.06;4166772;28;20103;-43
2021/12/21 04:19:26;;;;;;;1.20;1.00;;;;;;;18.56;38.65;102287.38;4181423;28;20029;-49
2021/12/21 04:21:28;;;;;;;11.55;7.13;;;;;;;18.55;38.57;102285.66;4179029;28;20451;-47
2021/12/21 04:23:29;;;;;;;45.22;27.23;;;;;;;18.54;38.76;102289.50;4166469;28;20112;-46
2021/12/21 04:25:31;;;;;;;46.22;27.52;;;;;;;18.53;38.64;102294.22;4165698;28;20092;-44
2021/12/21 04:27:33;;;;;;;33.78;21.00;;;;;;;18.51;38.63;102284.44;4165258;28;20037;-44
2021/12/21 04:29:34;;;;;;;33.92;19.83;;;;;;;18.48;38.28;102285.75;4167084;28;20045;-50
2021/12/21 04:31:36;;;;;;;33.13;19.20;;;;;;;18.50;38.64;102289.13;4182258;28;20423;-47
2021/12/21 04:33:42;;;;;;;35.63;20.65;;;;;;;18.48;38.60;102290.44;4180893;28;20029;-47
2021/12/21 04:35:43;;;;;;;38.42;22.85;;;;;;;18.45;38.48;102275.13;4181778;28;20045;-44
2021/12/21 04:37:54;;;;;;;41.30;24.73;;;;;;;18.49;38.68;102269.97;4182285;28;20029;-44
2021/12/21 04:40:03;;;;;;;43.53;27.00;;;;;;;18.49;38.26;102269.97;4177294;28;20473;-44
2021/12/21 04:42:06;;;;;;;49.35;29.50;;;;;;;18.49;38.28;102275.50;4164356;28;20095;-45
2021/12/21 04:44:07;;;;;;;49.70;31.02;;;;;;;18.47;38.63;102272.97;4162993;28;20497;-46
2021/12/21 04:46:09;;;;;;;52.97;31.63;;;;;;;18.47;38.64;102261.03;4166562;28;20115;-43
2021/12/21 04:48:13;;;;;;;57.42;33.78;;;;;;;18.44;38.61;102253.19;4163044;28;20095;-44
2021/12/21 04:50:15;;;;;;;53.92;32.83;;;;;;;18.46;38.48;102248.25;4162759;28;20037;-46
2021/12/21 04:52:17;;;;;;;56.72;34.08;;;;;;;18.46;38.38;102243.56;4171934;28;20037;-46
2021/12/21 04:54:18;;;;;;;60.80;36.70;;;;;;;18.46;39.04;102232.47;4164417;28;20096;-43
2021/12/21 04:56:20;;;;;;;62.95;37.90;;;;;;;18.45;39.01;102243.78;4162655;28;20053;-48
2021/12/21 04:58:21;;;;;;;65.53;38.97;;;;;;;18.45;38.87;102235.47;4166935;28;20096;-51
2021/12/21 05:00:23;;;;;;;69.07;40.83;;;;;;;18.45;39.27;102229.91;4168452;28;20037;-48
2021/12/21 05:02:25;;;;;;;78.13;45.58;;;;;;;18.45;39.89;102235.47;4168609;28;20030;-45
2021/12/21 05:04:26;;;;;;;79.38;48.00;;;;;;;18.45;40.07;102238.25;4164059;28;20096;-46
2021/12/21 05:06:28;;;;;;;75.20;46.65;;;;;;;18.44;39.72;102228.25;4166326;28;20548;-46
2021/12/21 05:08:34;;;;;;;79.07;47.35;;;;;;;18.37;40.18;102210.84;4163996;28;20037;-44
2021/12/21 05:10:44;;;;;;;84.78;51.28;;;;;;;18.43;40.39;102218.25;4167401;28;20092;-44
2021/12/21 05:12:46;;;;;;;85.85;52.88;;;;;;;18.39;40.65;102214.25;4164019;28;20049;-45
2021/12/21 05:14:47;;;;;;;79.95;49.35;;;;;;;18.48;40.55;102215.59;4163978;28;20026;-44
2021/12/21 05:16:51;;;;;;;79.28;49.08;;;;;;;18.48;40.90;102212.84;4163889;28;20115;-45
2021/12/21 05:18:52;;;;;;;90.85;53.50;;;;;;;18.49;42.10;102201.50;4163079;28;20037;-46
2021/12/21 05:20:54;;;;;;;86.07;52.60;;;;;;;18.51;42.82;102201.28;4162355;28;20034;-45
2021/12/21 05:22:56;;;;;;;80.53;48.05;;;;;;;18.50;42.22;102199.56;4164321;28;20037;-44
2021/12/21 05:24:57;;;;;;;74.80;44.42;;;;;;;18.35;41.80;102163.97;4163877;28;20025;-45
2021/12/21 05:26:59;;;;;;;70.47;43.97;;;;;;;18.53;41.79;102188.88;4162449;28;20034;-43
2021/12/21 05:29:01;;;;;;;65.75;39.13;;;;;;;18.55;41.43;102185.84;4163050;28;20042;-43
2021/12/21 05:31:02;;;;;;;61.30;36.78;;;;;;;18.55;41.22;102172.00;4163319;28;20029;-43
2021/12/21 05:33:04;;;;;;;56.22;35.97;;;;;;;18.56;40.77;102170.09;4163796;28;20037;-44
2021/12/21 05:35:07;;;;;;;55.72;33.83;;;;;;;18.56;41.03;102176.47;4166412;28;20414;-44
2021/12/21 05:37:09;;;;;;;74.25;48.30;;;;;;;18.59;42.61;102181.53;4166926;28;20045;-45
2021/12/21 05:39:20;;;;;;;76.18;49.40;;;;;;;18.60;44.18;102165.75;4163633;28;20025;-43
2021/12/21 05:41:40;;;;;;;67.40;43.50;;;;;;;18.64;44.26;102155.88;4163471;28;20030;-44
2021/12/21 05:43:41;;;;;;;60.08;39.20;;;;;;;18.68;43.69;102143.22;4163705;28;20048;-44
2021/12/21 05:45:43;;;;;;;60.25;38.58;;;;;;;18.68;43.75;102135.75;4163591;28;20439;-45
2021/12/21 05:47:44;;;;;;;51.30;35.35;;;;;;;18.70;43.49;102141.13;4167152;28;20041;-45
2021/12/21 05:49:47;;;;;;;54.80;36.78;;;;;;;18.70;42.85;102139.19;4163217;28;20041;-44
2021/12/21 05:51:49;;;;;;;51.15;34.38;;;;;;;18.72;42.88;102134.25;4163361;28;20469;-45
2021/12/21 05:53:50;;;;;;;50.97;32.60;;;;;;;18.72;43.04;102125.91;4163823;28;20103;-44
2021/12/21 05:55:54;;;;;;;50.45;34.08;;;;;;;18.75;42.60;102117.13;4163806;28;20033;-46
2021/12/21 05:57:57;;;;;;;46.77;30.53;;;;;;;18.75;42.89;102114.38;4166948;28;20068;-43
2021/12/21 05:59:58;;;;;;;47.97;31.38;;;;;;;18.76;42.50;102127.13;4163701;28;20017;-44
2021/12/21 06:02:00;;;;;;;46.17;30.70;;;;;;;18.77;42.38;102126.03;4170207;28;20017;-43
2021/12/21 06:04:02;;;;;;;47.15;29.90;;;;;;;18.77;42.42;102114.13;4180630;28;20095;-43
2021/12/21 06:06:03;;;;;;;45.13;29.80;;;;;;;18.79;42.56;102110.03;4180368;28;20090;-47
2021/12/21 06:08:08;;;;;;;40.60;28.10;;;;;;;18.81;42.65;102100.63;4180591;28;20037;-43
2021/12/21 06:10:18;;;;;;;;;;;;;;;18.81;42.35;102103.41;4180253;28;20040;-46
2021/12/21 06:12:38;;;;;;;39.40;25.50;;;;;;;18.87;41.95;102099.66;4181276;28;19966;-45
2021/12/21 06:15:16;;;;;;;38.38;25.25;;;;;;;18.88;42.02;102104.16;4179572;28;20045;-42
2021/12/21 06:26:43;;;;;;;35.33;22.42;;;;;;;18.89;41.94;102073.38;4165526;28;20431;-44
2021/12/21 06:28:46;;;;;;;33.67;22.02;;;;;;;18.88;41.84;102057.00;4164331;28;20099;-42
2021/12/21 06:30:48;;;;;;;33.78;20.85;;;;;;;18.87;41.52;102058.06;4163365;28;20034;-45
2021/12/21 06:32:50;;;;;;;35.17;21.73;;;;;;;18.85;41.81;102046.38;4164179;28;20072;-45
2021/12/21 06:34:51;;;;;;;31.63;20.65;;;;;;;18.88;41.56;102057.00;4164617;28;20038;-44
2021/12/21 06:36:53;;;;;;;33.42;20.92;;;;;;;18.88;41.71;102049.50;4162144;28;20041;-45
2021/12/21 06:38:55;;;;;;;30.02;19.98;;;;;;;18.89;41.75;102044.81;4163717;28;20045;-47
2021/12/21 06:40:56;;;;;;;28.85;18.90;;;;;;;18.82;41.59;102027.44;4164560;28;20531;-43
2021/12/21 06:43:01;;;;;;;31.77;19.38;;;;;;;18.89;41.32;102053.97;4164033;28;20033;-45
2021/12/21 06:45:11;;;;;;;29.65;19.02;;;;;;;18.90;41.71;102054.81;4164004;28;20037;-46
2021/12/21 06:51:58;;;;;;;28.33;18.45;;;;;;;18.92;41.42;102049.84;4167943;28;20038;-45
2021/12/21 06:53:59;;;;;;;28.52;17.90;;;;;;;18.89;41.42;102053.97;4167196;28;20049;-49
2021/12/21 06:56:00;;;;;;;27.77;17.55;;;;;;;18.92;41.30;102052.63;4166932;28;20068;-45
2021/12/21 06:58:02;;;;;;;26.67;18.13;;;;;;;18.92;41.35;102041.53;4166956;28;20084;-44
2021/12/21 07:00:06;;;;;;;24.63;16.48;;;;;;;18.92;41.08;102055.41;4165696;28;20366;-44
2021/12/21 07:02:10;;;;;;;24.60;16.60;;;;;;;18.92;41.19;102052.63;4167560;28;20103;-46
2021/12/21 07:04:14;;;;;;;25.55;15.68;;;;;;;18.92;41.34;102056.28;4167131;28;20374;-44
2021/12/21 07:06:18;;;;;;;24.50;15.98;;;;;;;18.95;41.10;102054.94;4169701;28;20087;-46
2021/12/21 07:08:28;;;;;;;24.95;15.70;;;;;;;18.94;40.96;102058.78;4183334;28;20399;-46
2021/12/21 07:10:31;;;;;;;24.90;15.95;;;;;;;18.95;40.94;102057.72;4182810;28;20082;-47
2021/12/21 07:19:15;;;;;;;22.63;14.65;;;;;;;18.94;41.41;102053.25;4182832;28;20480;-48
2021/12/21 07:21:17;;;;;;;24.20;15.50;;;;;;;18.95;41.04;102064.09;4181827;28;20033;-44
2021/12/21 07:23:19;;;;;;;21.48;14.50;;;;;;;18.94;41.40;102053.25;4183329;28;20037;-45
2021/12/21 07:25:20;;;;;;;21.08;13.77;;;;;;;18.94;41.32;102056.03;4182170;28;20033;-45
2021/12/21 07:27:21;;;;;;;21.00;14.00;;;;;;;18.93;41.01;102065.44;4182958;28;20028;-45
2021/12/21 07:29:23;;;;;;;19.13;13.63;;;;;;;18.94;41.28;102061.56;4182435;28;20111;-46
2021/12/21 07:31:28;;;;;;;19.55;13.02;;;;;;;18.96;41.06;102064.94;4181747;28;20045;-48
2021/12/21 07:33:30;;;;;;;19.38;13.00;;;;;;;18.92;41.18;102064.59;4182918;28;20033;-45
2021/12/21 07:35:31;;;;;;;17.15;12.63;;;;;;;18.98;40.79;102076.66;4182836;28;20037;-44
2021/12/21 07:37:32;;;;;;;19.45;12.38;;;;;;;18.96;40.92;102064.94;4182226;28;20048;-46
2021/12/21 07:39:34;;;;;;;20.88;13.43;;;;;;;18.98;41.18;102063.63;4170496;28;20037;-44
2021/12/21 07:41:35;;;;;;;20.23;13.05;;;;;;;18.97;40.90;102064.72;4182671;28;20114;-44
2021/12/21 07:43:39;;;;;;;18.33;12.45;;;;;;;18.89;40.87;102051.19;4182810;28;20102;-46
2021/12/21 07:45:41;;;;;;;18.38;12.40;;;;;;;18.98;40.86;102054.47;4182530;28;20033;-47
2021/12/21 07:47:43;;;;;;;18.50;11.80;;;;;;;18.98;40.97;102051.69;4182905;28;20083;-46
2021/12/21 07:49:44;;;;;;;19.33;12.57;;;;;;;18.98;41.21;102046.97;4182985;28;20049;-45
2021/12/21 07:51:48;;;;;;;17.98;12.30;;;;;;;18.98;40.96;102044.22;4169048;28;20046;-45
2021/12/21 07:53:50;;;;;;;17.27;11.50;;;;;;;19.00;41.07;102043.94;4166465;28;20030;-44
2021/12/21 07:55:51;;;;;;;16.35;11.48;;;;;;;18.98;41.14;102035.88;4166611;28;20465;-44
2021/12/21 07:57:53;;;;;;;16.23;10.77;;;;;;;18.97;41.00;102044.47;4165918;28;20033;-45
2021/12/21 07:59:54;;;;;;;18.00;10.80;;;;;;;18.98;40.77;102043.38;4171188;28;20083;-46
2021/12/21 08:01:56;;;;;;;19.85;11.15;;;;;;;19.00;40.96;102055.06;4182589;28;20045;-50
2021/12/21 08:03:58;;;;;;;16.05;10.98;;;;;;;18.98;41.00;102057.22;4167702;28;20100;-49
2021/12/21 08:06:01;;;;;;;16.02;10.75;;;;;;;18.98;41.05;102049.75;4165637;28;20092;-48
2021/12/21 08:08:18;;;;;;;14.48;10.35;;;;;;;18.97;40.66;102041.69;4165938;28;20025;-43
2021/12/21 08:10:27;;;;;;;15.52;10.43;;;;;;;18.96;41.07;102048.28;4166061;28;20084;-45
2021/12/21 08:12:28;;;;;;;16.60;10.77;;;;;;;18.98;41.05;102046.97;4165767;28;20107;-44
2021/12/21 08:14:30;;;;;;;16.00;10.68;;;;;;;18.98;40.76;102051.69;4166046;28;20427;-45
2021/12/21 08:16:34;;;;;;;16.20;10.38;;;;;;;18.89;41.00;102028.16;4163890;28;20111;-47
2021/12/21 08:18:36;;;;;;;14.30;9.68;;;;;;;18.96;40.79;102038.03;4165320;28;20100;-45
2021/12/21 08:20:38;;;;;;;15.90;10.05;;;;;;;18.96;41.15;102028.88;4164487;28;20104;-45
2021/12/21 08:22:42;;;;;;;16.17;9.80;;;;;;;18.96;40.71;102026.94;4165676;28;20077;-46
2021/12/21 08:24:44;;;;;;;15.15;10.23;;;;;;;18.95;40.94;102018.88;4174830;28;20098;-45
2021/12/21 08:26:46;;;;;;;14.25;9.48;;;;;;;18.94;41.01;102017.19;4182320;28;20102;-46
2021/12/21 08:28:47;;;;;;;15.52;10.10;;;;;;;18.93;41.08;102009.97;4181240;28;20071;-45
2021/12/21 08:30:48;;;;;;;15.93;9.07;;;;;;;18.94;41.04;102011.66;4182287;28;20036;-45
2021/12/21 08:32:50;;;;;;;11.60;8.77;;;;;;;18.92;40.94;102000.81;4180446;28;20033;-44
2021/12/21 08:34:51;;;;;;;13.80;9.00;;;;;;;18.90;40.73;101993.78;4167568;28;20049;-46
2021/12/21 08:36:53;;;;;;;14.80;9.35;;;;;;;18.86;41.00;101987.88;4176310;28;20048;-46
2021/12/21 08:38:55;;;;;;;14.48;9.20;;;;;;;18.90;40.94;101988.25;4180219;28;20025;-45
2021/12/21 08:40:58;;;;;;;14.35;8.85;;;;;;;18.83;40.96;101976.41;4177404;28;20076;-44
2021/12/21 08:43:00;;;;;;;12.25;8.82;;;;;;;18.88;41.19;101979.34;4175912;28;20110;-46
2021/12/21 08:45:07;;;;;;;12.88;8.85;;;;;;;18.83;41.23;101976.41;4181781;28;20447;-44
2021/12/21 08:47:09;;;;;;;11.65;7.88;;;;;;;18.86;41.14;101981.50;4181641;28;20025;-43
2021/12/21 08:49:10;;;;;;;12.82;7.85;;;;;;;18.85;40.85;101977.03;4181873;28;20083;-45
2021/12/21 08:51:11;;;;;;;19.45;9.70;;;;;;;18.85;40.89;101980.66;4177191;28;20071;-47
2021/12/21 08:53:15;;;;;;;11.93;7.68;;;;;;;18.83;41.11;101979.19;4165522;28;20026;-42
2021/12/21 08:55:18;;;;;;;11.43;7.68;;;;;;;18.85;40.84;101975.09;4164695;28;20095;-46
2021/12/21 08:57:19;;;;;;;13.80;8.00;;;;;;;18.84;40.79;101978.13;4168318;28;20049;-44
2021/12/21 08:59:23;;;;;;;10.85;7.65;;;;;;;18.83;41.00;101987.50;4165623;28;20037;-45
2021/12/21 09:01:25;;;;;;;9.57;6.80;;;;;;;18.83;40.64;101993.06;4174437;28;20029;-45
2021/12/21 09:03:26;;;;;;;13.18;8.63;;;;;;;18.83;41.04;101993.06;4181354;28;20095;-46
2021/12/21 09:05:31;;;;;;;11.70;7.47;;;;;;;18.82;40.83;101992.22;4176303;28;20033;-46
2021/12/21 09:07:33;;;;;;;12.43;8.13;;;;;;;18.82;40.95;101991.38;4166133;28;20107;-46
2021/12/21 09:09:35;;;;;;;10.07;7.13;;;;;;;18.83;40.83;101987.50;4175555;28;20041;-50
2021/12/21 09:11:37;;;;;;;12.20;7.60;;;;;;;18.77;40.89;101973.53;4180938;28;20106;-43
2021/12/21 09:13:38;;;;;;;10.60;7.30;;;;;;;18.82;40.71;101991.38;4174283;28;20024;-49
2021/12/21 09:15:40;;;;;;;12.18;7.50;;;;;;;18.80;41.16;101988.84;4180088;28;20067;-48
2021/12/21 09:17:44;;;;;;;10.90;7.13;;;;;;;18.76;40.96;101982.94;4164754;28;20111;-45
2021/12/21 09:19:45;;;;;;;10.27;6.90;;;;;;;18.75;40.99;101981.25;4170878;28;20057;-46
2021/12/21 09:21:47;;;;;;;10.43;6.53;;;;;;;18.77;40.65;101989.31;4171569;28;20045;-49
2021/12/21 09:23:48;;;;;;;10.43;7.40;;;;;;;18.75;41.00;101984.03;4164996;28;20076;-48
2021/12/21 09:25:50;;;;;;;9.82;6.63;;;;;;;18.77;40.57;101990.16;4165696;28;20416;-43
2021/12/21 09:27:58;;;;;;;8.10;6.13;;;;;;;18.76;40.66;101994.03;4179826;28;20025;-44
2021/12/21 09:30:00;;;;;;;8.90;6.50;;;;;;;18.76;40.84;101994.03;4175080;28;20488;-45
2021/12/21 09:32:01;;;;;;;10.63;6.60;;;;;;;18.70;40.97;101994.16;4167206;28;20033;-43
2021/12/21 09:34:03;;;;;;;9.70;6.50;;;;;;;18.73;41.07;101999.22;4181192;28;20042;-44
2021/12/21 09:36:05;;;;;;;8.95;5.82;;;;;;;18.74;40.82;102006.47;4181143;28;20095;-44
2021/12/21 09:38:06;;;;;;;8.77;5.72;;;;;;;18.72;40.82;102000.31;4165443;28;20083;-45
2021/12/21 09:40:12;;;;;;;10.82;6.70;;;;;;;18.73;41.01;101994.50;4163484;28;20091;-43
2021/12/21 09:42:21;;;;;;;7.97;5.38;;;;;;;18.71;40.59;102002.22;4164464;28;20033;-44
2021/12/21 09:44:23;;;;;;;9.45;5.70;;;;;;;18.72;40.94;102008.63;4179654;28;20045;-44
2021/12/21 09:46:24;;;;;;;8.48;6.03;;;;;;;18.71;40.71;102007.78;4174919;28;20534;-43
2021/12/21 09:48:28;;;;;;;9.57;6.13;;;;;;;18.57;40.55;101978.56;4174665;28;20041;-44
2021/12/21 09:50:30;;;;;;;8.00;5.65;;;;;;;18.65;40.89;102003.16;4181775;28;20467;-43
2021/12/21 09:52:35;;;;;;;8.35;5.47;;;;;;;18.42;40.86;101973.50;4169063;28;20111;-46
2021/12/21 09:54:37;;;;;;;7.18;5.07;;;;;;;18.63;40.95;102016.41;4164349;28;20041;-45
2021/12/21 09:56:39;;;;;;;9.10;5.50;;;;;;;18.68;41.13;102027.63;4164733;28;20041;-46
2021/12/21 09:58:41;;;;;;;7.50;5.40;;;;;;;18.67;40.88;102017.63;4164128;28;20091;-46
2021/12/21 10:00:42;;;;;;;8.05;5.10;;;;;;;18.67;40.69;102014.00;4164075;28;20543;-46
2021/12/21 10:02:44;;;;;;;7.35;5.15;;;;;;;18.65;40.91;102008.72;4164146;28;20123;-46
2021/12/21 10:04:58;;;;;;;7.20;5.05;;;;;;;18.64;40.56;102012.56;4175722;28;20468;-46
2021/12/21 10:07:00;;;;;;;7.68;5.15;;;;;;;18.64;40.59;102014.47;4180673;28;20036;-43
2021/12/21 10:09:08;;;;;;;6.60;4.82;;;;;;;18.61;40.97;102001.97;4172179;28;20030;-44
2021/12/21 10:11:22;;;;;;;7.35;5.07;;;;;;;18.60;40.65;102005.81;4164087;28;20099;-45
2021/12/21 10:13:27;;;;;;;7.15;5.03;;;;;;;18.62;40.61;102011.13;4165625;28;20037;-45
2021/12/21 10:15:28;;;;;;;8.25;4.60;;;;;;;18.61;40.51;102013.06;4165270;28;20095;-48
2021/12/21 10:17:32;;;;;;;8.32;5.13;;;;;;;18.57;40.79;102000.75;4174333;28;20113;-49
2021/12/21 10:19:35;;;;;;;6.65;4.60;;;;;;;18.60;40.68;101993.88;4164255;28;20037;-45